createdAt,value
2016-09-29T00:01:04.833Z,0
2016-09-29T00:01:35.019Z,0
2016-09-29T00:02:35.033Z,0
2016-09-29T00:04:35.098Z,0
2016-09-29T00:06:50.058Z,0
2016-09-29T00:07:35.162Z,0
2016-09-29T00:08:50.114Z,0
2016-09-29T00:09:35.211Z,0
2016-09-29T00:10:35.537Z,0
2016-09-29T00:11:35.255Z,0
2016-09-29T00:12:35.304Z,0
2016-09-29T00:13:35.309Z,0
2016-09-29T00:15:35.365Z,0
2016-09-29T00:16:35.385Z,0
2016-09-29T00:17:35.419Z,0
2016-09-29T00:18:35.439Z,0
2016-09-29T00:19:35.456Z,0
2016-09-29T00:20:35.791Z,0
2016-09-29T00:21:35.508Z,0
2016-09-29T00:22:50.714Z,0
2016-09-29T00:23:35.574Z,0
2016-09-29T00:24:35.582Z,0
2016-09-29T00:25:50.535Z,0
2016-09-29T00:26:35.641Z,0
2016-09-29T00:27:35.667Z,0
2016-09-29T00:28:35.688Z,0
2016-09-29T00:29:35.708Z,0
2016-09-29T00:30:35.784Z,0
2016-09-29T00:31:50.740Z,0
2016-09-29T00:32:35.797Z,0
2016-09-29T00:33:35.833Z,0
2016-09-29T00:34:35.832Z,0
2016-09-29T00:35:35.872Z,0
2016-09-29T00:36:35.891Z,0
2016-09-29T00:37:35.914Z,0
2016-09-29T00:38:35.944Z,0
2016-09-29T00:39:35.960Z,0
2016-09-29T00:40:35.996Z,0
2016-09-29T00:41:36.005Z,0
2016-09-29T00:43:36.050Z,0
2016-09-29T00:44:36.084Z,0
2016-09-29T00:45:36.104Z,0
2016-09-29T00:46:36.140Z,0
2016-09-29T00:47:51.080Z,0
2016-09-29T00:48:36.428Z,0
2016-09-29T00:49:36.213Z,0
2016-09-29T00:50:51.158Z,0
2016-09-29T00:51:36.458Z,0
2016-09-29T00:52:36.283Z,0
2016-09-29T00:53:36.555Z,0
2016-09-29T00:54:36.345Z,0
2016-09-29T00:55:36.352Z,0
2016-09-29T00:56:36.380Z,0
2016-09-29T00:57:36.404Z,0
2016-09-29T00:58:36.430Z,0
2016-09-29T00:59:51.381Z,0
2016-09-29T01:00:36.590Z,0
2016-09-29T01:01:51.427Z,0
2016-09-29T01:02:36.576Z,0
2016-09-29T01:04:06.403Z,0
2016-09-29T01:04:36.581Z,0
2016-09-29T01:05:36.605Z,0
2016-09-29T01:06:36.626Z,0
2016-09-29T01:07:36.662Z,0
2016-09-29T01:08:36.692Z,0
2016-09-29T01:10:06.565Z,0
2016-09-29T01:10:36.735Z,0
2016-09-29T01:11:36.758Z,0
2016-09-29T01:12:36.806Z,0
2016-09-29T01:13:36.806Z,0
2016-09-29T01:14:36.837Z,0
2016-09-29T01:15:36.852Z,0
2016-09-29T01:16:36.884Z,0
2016-09-29T01:17:36.914Z,0
2016-09-29T01:18:36.977Z,0
2016-09-29T01:19:51.930Z,0
2016-09-29T01:20:36.987Z,0
2016-09-29T01:22:37.039Z,0
2016-09-29T01:23:37.060Z,0
2016-09-29T01:24:52.003Z,0
2016-09-29T01:25:37.104Z,0
2016-09-29T01:26:37.434Z,0
2016-09-29T01:27:37.162Z,0
2016-09-29T01:28:37.176Z,0
2016-09-29T01:29:37.208Z,0
2016-09-29T01:30:37.232Z,0
2016-09-29T01:32:07.106Z,0
2016-09-29T01:32:37.278Z,0
2016-09-29T01:33:37.320Z,0
2016-09-29T01:34:52.251Z,0
2016-09-29T01:35:37.353Z,0
2016-09-29T01:36:37.383Z,0
2016-09-29T01:37:37.420Z,0
2016-09-29T01:38:37.425Z,0
2016-09-29T01:39:37.464Z,0
2016-09-29T01:40:37.469Z,0
2016-09-29T01:41:37.506Z,0
2016-09-29T01:42:52.698Z,0
2016-09-29T01:43:52.473Z,0
2016-09-29T01:44:52.505Z,0
2016-09-29T01:45:37.599Z,0
2016-09-29T01:46:37.618Z,0
2016-09-29T01:47:37.648Z,0
2016-09-29T01:48:37.678Z,0
2016-09-29T01:49:37.700Z,0
2016-09-29T01:50:37.731Z,0
2016-09-29T01:51:37.747Z,0
2016-09-29T01:52:37.781Z,0
2016-09-29T01:53:37.803Z,0
2016-09-29T01:54:37.826Z,0
2016-09-29T01:56:38.134Z,0
2016-09-29T01:57:38.023Z,0
2016-09-29T01:58:52.845Z,0
2016-09-29T01:59:37.942Z,0
2016-09-29T02:00:37.982Z,0
2016-09-29T02:01:37.994Z,0
2016-09-29T02:02:52.943Z,0
2016-09-29T02:03:38.070Z,0
2016-09-29T02:04:38.073Z,0
2016-09-29T02:05:38.393Z,0
2016-09-29T02:07:07.973Z,0
2016-09-29T02:07:38.139Z,0
2016-09-29T02:08:38.178Z,0
2016-09-29T02:09:38.206Z,0
2016-09-29T02:10:53.203Z,0
2016-09-29T02:11:38.251Z,0
2016-09-29T02:12:53.193Z,0
2016-09-29T02:13:38.292Z,0
2016-09-29T02:14:38.313Z,0
2016-09-29T02:16:38.369Z,0
2016-09-29T02:18:38.719Z,0
2016-09-29T02:19:53.369Z,0
2016-09-29T02:21:38.493Z,0
2016-09-29T02:22:53.441Z,0
2016-09-29T02:23:53.471Z,0
2016-09-29T02:24:38.568Z,0
2016-09-29T02:26:38.668Z,0
2016-09-29T02:27:38.639Z,0
2016-09-29T02:28:38.665Z,0
2016-09-29T02:29:38.690Z,0
2016-09-29T02:30:39.021Z,0
2016-09-29T02:31:38.741Z,0
2016-09-29T02:32:38.759Z,0
2016-09-29T02:33:38.787Z,0
2016-09-29T02:34:38.823Z,0
2016-09-29T02:35:53.756Z,0
2016-09-29T02:36:39.107Z,0
2016-09-29T02:37:38.893Z,0
2016-09-29T02:38:53.833Z,0
2016-09-29T02:39:38.933Z,0
2016-09-29T02:40:54.183Z,0
2016-09-29T02:41:38.983Z,0
2016-09-29T02:42:39.070Z,0
2016-09-29T02:43:39.045Z,0
2016-09-29T02:44:39.065Z,0
2016-09-29T02:45:54.106Z,0
2016-09-29T02:46:39.109Z,0
2016-09-29T02:47:39.137Z,0
2016-09-29T02:49:39.186Z,0
2016-09-29T02:52:54.196Z,0
2016-09-29T02:53:39.293Z,0
2016-09-29T02:54:54.243Z,0
2016-09-29T02:55:39.331Z,0
2016-09-29T02:56:54.284Z,0
2016-09-29T02:57:39.371Z,0
2016-09-29T02:58:39.405Z,0
2016-09-29T02:59:39.433Z,0
2016-09-29T03:00:39.461Z,0
2016-09-29T03:01:39.481Z,0
2016-09-29T03:02:39.511Z,0
2016-09-29T03:03:39.528Z,0
2016-09-29T03:04:39.565Z,0
2016-09-29T03:05:39.882Z,0
2016-09-29T03:06:54.526Z,0
2016-09-29T03:07:39.637Z,0
2016-09-29T03:08:54.577Z,0
2016-09-29T03:09:54.601Z,0
2016-09-29T03:10:39.700Z,0
2016-09-29T03:11:39.744Z,0
2016-09-29T03:12:39.752Z,0
2016-09-29T03:13:40.077Z,0
2016-09-29T03:14:39.823Z,0
2016-09-29T03:15:39.833Z,0
2016-09-29T03:16:39.855Z,0
2016-09-29T03:17:54.856Z,0
2016-09-29T03:18:39.949Z,0
2016-09-29T03:19:54.843Z,0
2016-09-29T03:20:54.866Z,0
2016-09-29T03:21:54.896Z,0
2016-09-29T03:22:39.996Z,0
2016-09-29T03:23:40.027Z,0
2016-09-29T03:24:40.046Z,0
2016-09-29T03:26:40.097Z,0
2016-09-29T03:27:40.120Z,0
2016-09-29T03:28:40.142Z,0
2016-09-29T03:29:40.172Z,0
2016-09-29T03:30:40.451Z,0
2016-09-29T03:31:40.222Z,0
2016-09-29T03:32:40.251Z,0
2016-09-29T03:33:40.276Z,0
2016-09-29T03:34:55.228Z,0
2016-09-29T03:35:40.327Z,0
2016-09-29T03:36:55.570Z,0
2016-09-29T03:37:40.675Z,0
2016-09-29T03:38:41.000Z,0
2016-09-29T03:39:40.718Z,0
2016-09-29T03:40:40.748Z,0
2016-09-29T03:41:55.391Z,0
2016-09-29T03:42:40.745Z,0
2016-09-29T03:43:40.524Z,0
2016-09-29T03:44:40.541Z,0
2016-09-29T03:45:40.566Z,0
2016-09-29T03:46:40.585Z,0
2016-09-29T03:47:40.916Z,0
2016-09-29T03:48:40.642Z,0
2016-09-29T03:49:40.670Z,0
2016-09-29T03:50:41.002Z,0
2016-09-29T03:51:40.764Z,0
2016-09-29T03:52:41.035Z,0
2016-09-29T03:53:40.755Z,0
2016-09-29T03:54:40.787Z,0
2016-09-29T03:55:56.038Z,0
2016-09-29T03:56:40.839Z,0
2016-09-29T03:57:55.785Z,0
2016-09-29T03:58:40.888Z,0
2016-09-29T03:59:41.214Z,0
2016-09-29T04:00:40.935Z,0
2016-09-29T04:01:55.935Z,0
2016-09-29T04:02:40.980Z,0
2016-09-29T04:03:41.310Z,0
2016-09-29T04:05:41.060Z,0
2016-09-29T04:06:41.106Z,0
2016-09-29T04:07:41.111Z,0
2016-09-29T04:08:41.430Z,0
2016-09-29T04:09:56.083Z,0
2016-09-29T04:10:56.114Z,0
2016-09-29T04:11:41.201Z,0
2016-09-29T04:12:41.275Z,0
2016-09-29T04:13:56.479Z,0
2016-09-29T04:14:41.271Z,0
2016-09-29T04:15:41.608Z,0
2016-09-29T04:16:41.330Z,0
2016-09-29T04:17:56.573Z,0
2016-09-29T04:18:41.372Z,0
2016-09-29T04:19:41.398Z,0
2016-09-29T04:20:41.421Z,0
2016-09-29T04:21:41.765Z,0
2016-09-29T04:22:41.485Z,0
2016-09-29T04:23:41.526Z,0
2016-09-29T04:24:41.523Z,0
2016-09-29T04:25:56.477Z,0
2016-09-29T04:26:41.585Z,0
2016-09-29T04:28:41.671Z,0
2016-09-29T04:29:56.570Z,0
2016-09-29T04:30:56.590Z,0
2016-09-29T04:31:41.999Z,0
2016-09-29T04:32:41.718Z,0
2016-09-29T04:33:42.299Z,0
2016-09-29T04:34:41.777Z,0
2016-09-29T04:35:41.792Z,0
2016-09-29T04:36:56.744Z,0
2016-09-29T04:37:41.845Z,0
2016-09-29T04:38:41.871Z,0
2016-09-29T04:39:56.812Z,0
2016-09-29T04:40:41.920Z,0
2016-09-29T04:41:42.243Z,0
2016-09-29T04:42:41.973Z,0
2016-09-29T04:43:41.992Z,0
2016-09-29T04:44:56.942Z,0
2016-09-29T04:45:56.959Z,0
2016-09-29T04:46:42.073Z,0
2016-09-29T04:47:42.083Z,0
2016-09-29T04:48:42.414Z,0
2016-09-29T04:49:57.064Z,0
2016-09-29T04:50:42.164Z,0
2016-09-29T04:51:42.178Z,0
2016-09-29T04:52:42.212Z,0
2016-09-29T04:53:42.290Z,0
2016-09-29T04:54:42.253Z,0
2016-09-29T04:55:57.204Z,0
2016-09-29T04:56:42.307Z,0
2016-09-29T04:57:42.336Z,0
2016-09-29T04:58:42.368Z,0
2016-09-29T05:00:57.629Z,0
2016-09-29T05:01:57.359Z,0
2016-09-29T05:02:42.465Z,0
2016-09-29T05:03:57.405Z,0
2016-09-29T05:04:42.805Z,0
2016-09-29T05:05:42.540Z,0
2016-09-29T05:07:42.581Z,0
2016-09-29T05:08:42.925Z,0
2016-09-29T05:09:42.632Z,0
2016-09-29T05:10:42.658Z,0
2016-09-29T05:11:42.683Z,0
2016-09-29T05:12:57.623Z,0
2016-09-29T05:13:42.725Z,0
2016-09-29T05:14:42.748Z,0
2016-09-29T05:15:42.770Z,0
2016-09-29T05:16:57.766Z,0
2016-09-29T05:17:42.879Z,0
2016-09-29T05:18:42.903Z,0
2016-09-29T05:19:42.871Z,0
2016-09-29T05:20:42.900Z,5
2016-09-29T05:21:42.927Z,5
2016-09-29T05:22:42.949Z,5
2016-09-29T05:23:42.973Z,5
2016-09-29T05:24:57.917Z,5
2016-09-29T05:25:43.023Z,5
2016-09-29T05:26:43.049Z,5
2016-09-29T05:27:43.074Z,5
2016-09-29T05:28:43.099Z,5
2016-09-29T05:29:58.044Z,5
2016-09-29T05:30:43.149Z,5
2016-09-29T05:31:43.163Z,5
2016-09-29T05:32:58.121Z,5
2016-09-29T05:33:43.221Z,5
2016-09-29T05:34:43.234Z,10
2016-09-29T05:35:58.193Z,10
2016-09-29T05:36:43.304Z,10
2016-09-29T05:37:43.316Z,10
2016-09-29T05:38:43.341Z,10
2016-09-29T05:39:43.362Z,10
2016-09-29T05:40:43.589Z,10
2016-09-29T05:41:43.415Z,10
2016-09-29T05:42:43.443Z,10
2016-09-29T05:43:43.467Z,15
2016-09-29T05:44:43.488Z,15
2016-09-29T05:45:58.439Z,20
2016-09-29T05:46:43.553Z,20
2016-09-29T05:47:43.562Z,20
2016-09-29T05:48:58.507Z,20
2016-09-29T05:49:58.784Z,25
2016-09-29T05:50:43.638Z,25
2016-09-29T05:51:43.661Z,25
2016-09-29T05:52:43.672Z,20
2016-09-29T05:53:43.711Z,20
2016-09-29T05:54:43.738Z,20
2016-09-29T05:55:43.958Z,20
2016-09-29T05:56:43.784Z,20
2016-09-29T05:57:43.815Z,20
2016-09-29T05:58:43.834Z,20
2016-09-29T05:59:43.863Z,20
2016-09-29T06:00:58.816Z,20
2016-09-29T06:01:43.911Z,20
2016-09-29T06:02:43.936Z,20
2016-09-29T06:03:44.004Z,20
2016-09-29T06:04:58.954Z,20
2016-09-29T06:05:58.928Z,20
2016-09-29T06:06:44.043Z,25
2016-09-29T06:08:44.491Z,25
2016-09-29T06:09:44.099Z,30
2016-09-29T06:10:44.130Z,30
2016-09-29T06:11:44.150Z,35
2016-09-29T06:12:44.182Z,40
2016-09-29T06:13:44.208Z,45
2016-09-29T06:14:44.224Z,45
2016-09-29T06:15:44.258Z,50
2016-09-29T06:16:59.205Z,50
2016-09-29T06:17:44.596Z,50
2016-09-29T06:18:59.257Z,50
2016-09-29T06:19:59.275Z,55
2016-09-29T06:20:44.395Z,55
2016-09-29T06:21:44.756Z,55
2016-09-29T06:22:44.428Z,55
2016-09-29T06:23:44.445Z,50
2016-09-29T06:24:44.482Z,50
2016-09-29T06:25:44.504Z,60
2016-09-29T06:26:44.799Z,65
2016-09-29T06:27:44.555Z,60
2016-09-29T06:29:44.929Z,90
2016-09-29T06:30:44.628Z,90
2016-09-29T06:31:59.575Z,105
2016-09-29T06:32:59.608Z,115
2016-09-29T06:33:44.699Z,120
2016-09-29T06:34:44.727Z,125
2016-09-29T06:35:59.672Z,155
2016-09-29T06:36:44.780Z,210
2016-09-29T06:38:44.828Z,215
2016-09-29T06:39:44.853Z,135
2016-09-29T06:40:44.877Z,70
2016-09-29T06:41:44.905Z,55
2016-09-29T06:42:44.932Z,55
2016-09-29T06:43:59.877Z,60
2016-09-29T06:44:45.237Z,60
2016-09-29T06:45:45.007Z,65
2016-09-29T06:46:45.022Z,70
2016-09-29T06:47:45.060Z,70
2016-09-29T06:48:45.077Z,75
2016-09-29T06:50:14.955Z,70
2016-09-29T06:50:45.126Z,70
2016-09-29T06:52:00.075Z,65
2016-09-29T06:53:45.212Z,55
2016-09-29T06:54:45.237Z,50
2016-09-29T06:55:45.260Z,50
2016-09-29T06:57:00.207Z,50
2016-09-29T06:57:45.619Z,50
2016-09-29T06:59:00.265Z,50
2016-09-29T06:59:45.354Z,50
2016-09-29T07:00:45.386Z,50
2016-09-29T07:01:45.406Z,50
2016-09-29T07:03:00.359Z,50
2016-09-29T07:03:45.467Z,50
2016-09-29T07:04:45.502Z,55
2016-09-29T07:05:45.506Z,60
2016-09-29T07:06:45.852Z,70
2016-09-29T07:08:00.801Z,80
2016-09-29T07:08:45.584Z,80
2016-09-29T07:09:45.617Z,85
2016-09-29T07:10:45.635Z,90
2016-09-29T07:11:45.670Z,90
2016-09-29T07:12:45.686Z,90
2016-09-29T07:14:00.637Z,90
2016-09-29T07:15:00.672Z,90
2016-09-29T07:15:45.763Z,90
2016-09-29T07:16:45.790Z,90
2016-09-29T07:17:45.816Z,90
2016-09-29T07:18:45.835Z,90
2016-09-29T07:19:45.869Z,90
2016-09-29T07:20:45.897Z,90
2016-09-29T07:21:45.910Z,90
2016-09-29T07:22:45.942Z,85
2016-09-29T07:24:00.885Z,85
2016-09-29T07:25:00.926Z,85
2016-09-29T07:25:46.021Z,85
2016-09-29T07:26:46.343Z,85
2016-09-29T07:27:46.067Z,85
2016-09-29T07:28:46.096Z,85
2016-09-29T07:29:46.323Z,85
2016-09-29T07:30:46.157Z,90
2016-09-29T07:31:46.177Z,90
2016-09-29T07:32:46.186Z,95
2016-09-29T07:33:46.227Z,95
2016-09-29T07:34:46.252Z,95
2016-09-29T07:35:46.269Z,95
2016-09-29T07:37:01.223Z,100
2016-09-29T07:37:46.332Z,105
2016-09-29T07:39:01.270Z,115
2016-09-29T07:40:01.302Z,125
2016-09-29T07:40:46.402Z,140
2016-09-29T07:41:46.428Z,135
2016-09-29T07:42:46.569Z,150
2016-09-29T07:43:46.474Z,175
2016-09-29T07:44:46.518Z,185
2016-09-29T07:46:01.453Z,185
2016-09-29T07:46:46.555Z,185
2016-09-29T07:47:46.586Z,210
2016-09-29T07:48:46.609Z,210
2016-09-29T07:49:46.627Z,225
2016-09-29T07:50:46.656Z,225
2016-09-29T07:51:46.678Z,205
2016-09-29T07:53:01.640Z,215
2016-09-29T07:53:46.738Z,225
2016-09-29T07:55:16.613Z,215
2016-09-29T07:55:46.783Z,210
2016-09-29T07:56:46.814Z,205
2016-09-29T07:57:46.856Z,210
2016-09-29T07:58:47.122Z,210
2016-09-29T07:59:46.903Z,205
2016-09-29T08:00:46.921Z,205
2016-09-29T08:01:46.949Z,200
2016-09-29T08:02:46.974Z,200
2016-09-29T08:04:02.181Z,230
2016-09-29T08:04:47.035Z,260
2016-09-29T08:05:47.070Z,260
2016-09-29T08:06:47.295Z,235
2016-09-29T08:07:47.108Z,230
2016-09-29T08:08:47.136Z,235
2016-09-29T08:09:47.162Z,235
2016-09-29T08:10:47.202Z,215
2016-09-29T08:12:02.138Z,190
2016-09-29T08:12:47.241Z,170
2016-09-29T08:13:47.470Z,145
2016-09-29T08:14:47.300Z,135
2016-09-29T08:15:47.326Z,120
2016-09-29T08:16:47.353Z,120
2016-09-29T08:17:47.377Z,125
2016-09-29T08:18:47.407Z,135
2016-09-29T08:19:47.424Z,145
2016-09-29T08:20:47.458Z,150
2016-09-29T08:22:47.512Z,170
2016-09-29T08:23:47.543Z,180
2016-09-29T08:24:47.571Z,180
2016-09-29T08:25:47.589Z,175
2016-09-29T08:27:02.545Z,165
2016-09-29T08:27:47.649Z,165
2016-09-29T08:28:47.671Z,175
2016-09-29T08:29:47.700Z,195
2016-09-29T08:30:47.735Z,175
2016-09-29T08:32:02.681Z,180
2016-09-29T08:32:47.781Z,185
2016-09-29T08:33:47.811Z,185
2016-09-29T08:34:47.834Z,200
2016-09-29T08:35:47.860Z,255
2016-09-29T08:36:47.902Z,275
2016-09-29T08:37:47.919Z,305
2016-09-29T08:40:02.901Z,255
2016-09-29T08:40:48.026Z,265
2016-09-29T08:42:02.950Z,255
2016-09-29T08:43:02.983Z,245
2016-09-29T08:43:48.088Z,265
2016-09-29T08:44:48.112Z,250
2016-09-29T08:45:48.143Z,350
2016-09-29T08:46:48.171Z,400
2016-09-29T08:47:48.194Z,440
2016-09-29T08:48:48.223Z,420
2016-09-29T08:49:48.237Z,420
2016-09-29T08:50:48.278Z,310
2016-09-29T08:52:03.232Z,325
2016-09-29T08:52:48.337Z,385
2016-09-29T08:53:48.688Z,300
2016-09-29T08:54:48.387Z,295
2016-09-29T08:56:03.355Z,395
2016-09-29T08:56:48.451Z,275
2016-09-29T08:57:48.667Z,345
2016-09-29T08:59:48.734Z,300
2016-09-29T09:00:48.549Z,345
2016-09-29T09:01:48.602Z,320
2016-09-29T09:02:48.615Z,380
2016-09-29T09:03:48.642Z,300
2016-09-29T09:04:48.677Z,275
2016-09-29T09:05:48.696Z,275
2016-09-29T09:06:48.736Z,285
2016-09-29T09:08:03.694Z,270
2016-09-29T09:08:48.993Z,250
2016-09-29T09:09:48.833Z,315
2016-09-29T09:11:03.775Z,505
2016-09-29T09:11:49.086Z,545
2016-09-29T09:12:48.912Z,440
2016-09-29T09:14:03.868Z,355
2016-09-29T09:15:03.904Z,270
2016-09-29T09:15:48.998Z,270
2016-09-29T09:16:49.032Z,370
2016-09-29T09:17:49.051Z,535
2016-09-29T09:18:49.082Z,505
2016-09-29T09:19:49.114Z,420
2016-09-29T09:20:49.136Z,355
2016-09-29T09:21:49.164Z,285
2016-09-29T09:22:49.203Z,350
2016-09-29T09:23:49.229Z,310
2016-09-29T09:24:49.260Z,300
2016-09-29T09:26:49.320Z,310
2016-09-29T09:27:49.355Z,305
2016-09-29T09:28:49.690Z,335
2016-09-29T09:30:04.336Z,210
2016-09-29T09:30:49.448Z,190
2016-09-29T09:31:49.773Z,190
2016-09-29T09:32:49.740Z,190
2016-09-29T09:33:49.535Z,185
2016-09-29T09:34:49.779Z,195
2016-09-29T09:35:49.582Z,195
2016-09-29T09:36:49.626Z,235
2016-09-29T09:37:49.655Z,245
2016-09-29T09:38:49.979Z,240
2016-09-29T09:39:49.712Z,240
2016-09-29T09:40:49.731Z,310
2016-09-29T09:41:49.763Z,335
2016-09-29T09:42:49.803Z,350
2016-09-29T09:44:04.747Z,260
2016-09-29T09:44:49.857Z,240
2016-09-29T09:45:49.885Z,210
2016-09-29T09:46:49.919Z,210
2016-09-29T09:47:49.953Z,215
2016-09-29T09:48:50.072Z,205
2016-09-29T09:49:50.001Z,270
2016-09-29T09:50:50.028Z,290
2016-09-29T09:51:50.059Z,295
2016-09-29T09:52:50.092Z,275
2016-09-29T09:53:50.133Z,255
2016-09-29T09:54:50.156Z,255
2016-09-29T09:55:50.182Z,235
2016-09-29T09:57:05.136Z,225
2016-09-29T09:57:50.240Z,230
2016-09-29T09:59:05.208Z,235
2016-09-29T09:59:50.296Z,245
2016-09-29T10:02:05.284Z,290
2016-09-29T10:02:50.399Z,300
2016-09-29T10:03:50.426Z,275
2016-09-29T10:04:50.460Z,295
2016-09-29T10:06:05.427Z,305
2016-09-29T10:06:50.516Z,295
2016-09-29T10:07:50.548Z,260
2016-09-29T10:08:50.589Z,285
2016-09-29T10:10:05.526Z,285
2016-09-29T10:10:50.647Z,290
2016-09-29T10:12:05.908Z,300
2016-09-29T10:12:50.693Z,305
2016-09-29T10:14:05.648Z,310
2016-09-29T10:15:05.688Z,310
2016-09-29T10:16:20.643Z,310
2016-09-29T10:16:50.817Z,305
2016-09-29T10:18:06.072Z,305
2016-09-29T10:18:50.880Z,300
2016-09-29T10:19:50.909Z,275
2016-09-29T10:20:50.930Z,290
2016-09-29T10:21:50.969Z,285
2016-09-29T10:22:51.000Z,280
2016-09-29T10:23:51.028Z,270
2016-09-29T10:24:51.055Z,265
2016-09-29T10:25:51.093Z,260
2016-09-29T10:26:51.123Z,250
2016-09-29T10:28:06.093Z,240
2016-09-29T10:28:51.174Z,235
2016-09-29T10:30:06.140Z,220
2016-09-29T10:30:51.249Z,215
2016-09-29T10:32:06.197Z,210
2016-09-29T10:32:51.302Z,205
2016-09-29T10:34:06.256Z,200
2016-09-29T10:34:51.361Z,190
2016-09-29T10:36:06.317Z,180
2016-09-29T10:36:51.428Z,175
2016-09-29T10:37:51.453Z,170
2016-09-29T10:38:51.493Z,165
2016-09-29T10:39:51.512Z,160
2016-09-29T10:40:51.538Z,165
2016-09-29T10:41:51.591Z,160
2016-09-29T10:42:51.602Z,155
2016-09-29T10:43:51.630Z,155
2016-09-29T10:44:51.656Z,150
2016-09-29T10:46:51.726Z,150
2016-09-29T10:47:51.739Z,145
2016-09-29T10:48:51.776Z,145
2016-09-29T10:50:21.652Z,140
2016-09-29T10:50:51.828Z,140
2016-09-29T10:51:51.874Z,140
2016-09-29T10:52:51.891Z,135
2016-09-29T10:55:06.874Z,130
2016-09-29T10:55:51.976Z,130
2016-09-29T10:58:52.320Z,115
2016-09-29T11:00:07.035Z,125
2016-09-29T11:00:52.123Z,125
2016-09-29T11:01:52.158Z,120
2016-09-29T11:02:52.189Z,135
2016-09-29T11:03:52.213Z,135
2016-09-29T11:05:22.090Z,150
2016-09-29T11:05:52.271Z,155
2016-09-29T11:07:52.334Z,170
2016-09-29T11:08:52.364Z,150
2016-09-29T11:09:52.394Z,165
2016-09-29T11:10:52.416Z,160
2016-09-29T11:11:52.697Z,175
2016-09-29T11:12:52.474Z,175
2016-09-29T11:13:52.714Z,170
2016-09-29T11:15:07.453Z,175
2016-09-29T11:15:52.587Z,170
2016-09-29T11:16:52.594Z,165
2016-09-29T11:17:52.623Z,170
2016-09-29T11:18:52.656Z,170
2016-09-29T11:20:07.597Z,170
2016-09-29T11:20:52.701Z,165
2016-09-29T11:21:52.744Z,165
2016-09-29T11:22:52.769Z,165
2016-09-29T11:23:52.795Z,160
2016-09-29T11:24:52.821Z,160
2016-09-29T11:25:52.853Z,155
2016-09-29T11:27:07.805Z,150
2016-09-29T11:27:52.913Z,145
2016-09-29T11:28:52.939Z,155
2016-09-29T11:29:52.963Z,155
2016-09-29T11:30:52.996Z,155
2016-09-29T11:31:53.030Z,155
2016-09-29T11:32:53.055Z,150
2016-09-29T11:34:22.938Z,145
2016-09-29T11:34:53.115Z,150
2016-09-29T11:35:53.140Z,150
2016-09-29T11:38:08.120Z,145
2016-09-29T11:38:53.228Z,145
2016-09-29T11:39:53.260Z,145
2016-09-29T11:40:53.280Z,145
2016-09-29T11:41:53.314Z,145
2016-09-29T11:42:53.344Z,145
2016-09-29T11:43:53.370Z,140
2016-09-29T11:44:53.408Z,140
2016-09-29T11:45:53.436Z,140
2016-09-29T11:46:53.470Z,145
2016-09-29T11:47:53.488Z,145
2016-09-29T11:48:53.509Z,145
2016-09-29T11:49:53.546Z,145
2016-09-29T11:50:53.577Z,140
2016-09-29T11:52:08.532Z,135
2016-09-29T11:53:08.558Z,130
2016-09-29T11:53:53.669Z,120
2016-09-29T11:55:08.621Z,145
2016-09-29T11:55:53.720Z,145
2016-09-29T11:56:53.745Z,145
2016-09-29T11:57:53.791Z,150
2016-09-29T11:58:53.809Z,150
2016-09-29T11:59:53.841Z,150
2016-09-29T12:00:53.864Z,150
2016-09-29T12:01:53.900Z,150
2016-09-29T12:03:08.859Z,150
2016-09-29T12:03:53.947Z,150
2016-09-29T12:04:53.980Z,150
2016-09-29T12:05:54.006Z,145
2016-09-29T12:06:54.037Z,150
2016-09-29T12:07:54.123Z,140
2016-09-29T12:09:09.018Z,115
2016-09-29T12:10:23.972Z,130
2016-09-29T12:11:09.083Z,100
2016-09-29T12:11:54.184Z,145
2016-09-29T12:12:54.216Z,150
2016-09-29T12:13:54.239Z,150
2016-09-29T12:15:09.190Z,155
2016-09-29T12:15:54.363Z,160
2016-09-29T12:16:54.327Z,165
2016-09-29T12:17:54.355Z,165
2016-09-29T12:18:54.390Z,165
2016-09-29T12:19:54.723Z,160
2016-09-29T12:20:55.241Z,175
2016-09-29T12:22:54.504Z,180
2016-09-29T12:23:54.523Z,170
2016-09-29T12:25:10.484Z,155
2016-09-29T12:25:54.587Z,135
2016-09-29T12:26:54.615Z,170
2016-09-29T12:27:54.649Z,150
2016-09-29T12:28:54.869Z,160
2016-09-29T12:30:09.625Z,165
2016-09-29T12:30:54.732Z,165
2016-09-29T12:31:54.762Z,165
2016-09-29T12:32:54.786Z,160
2016-09-29T12:33:55.129Z,170
2016-09-29T12:35:54.874Z,160
2016-09-29T12:37:09.829Z,160
2016-09-29T12:37:54.930Z,165
2016-09-29T12:38:54.972Z,170
2016-09-29T12:40:09.920Z,155
2016-09-29T12:40:55.032Z,150
2016-09-29T12:41:55.747Z,150
2016-09-29T12:42:55.079Z,145
2016-09-29T12:44:55.492Z,150
2016-09-29T12:45:55.180Z,150
2016-09-29T12:46:55.247Z,145
2016-09-29T12:47:55.227Z,150
2016-09-29T12:48:55.255Z,155
2016-09-29T12:49:55.289Z,130
2016-09-29T12:50:55.316Z,145
2016-09-29T12:52:10.270Z,125
2016-09-29T12:53:55.396Z,120
2016-09-29T12:55:10.355Z,120
2016-09-29T12:56:10.380Z,130
2016-09-29T12:56:55.497Z,135
2016-09-29T12:57:55.776Z,150
2016-09-29T12:58:55.549Z,160
2016-09-29T12:59:55.579Z,140
2016-09-29T13:00:55.598Z,155
2016-09-29T13:01:55.644Z,170
2016-09-29T13:02:55.660Z,170
2016-09-29T13:03:55.685Z,145
2016-09-29T13:05:55.738Z,180
2016-09-29T13:06:55.774Z,185
2016-09-29T13:07:55.808Z,185
2016-09-29T13:08:55.843Z,165
2016-09-29T13:09:55.861Z,165
2016-09-29T13:10:55.893Z,155
2016-09-29T13:12:10.843Z,150
2016-09-29T13:12:55.948Z,160
2016-09-29T13:14:10.904Z,160
2016-09-29T13:15:56.029Z,165
2016-09-29T13:16:56.079Z,160
2016-09-29T13:17:56.093Z,170
2016-09-29T13:19:11.052Z,150
2016-09-29T13:19:56.154Z,180
2016-09-29T13:20:56.190Z,180
2016-09-29T13:22:56.245Z,180
2016-09-29T13:23:56.262Z,200
2016-09-29T13:25:11.218Z,180
2016-09-29T13:25:56.323Z,145
2016-09-29T13:26:56.351Z,145
2016-09-29T13:28:11.315Z,175
2016-09-29T13:29:11.340Z,170
2016-09-29T13:29:56.449Z,170
2016-09-29T13:30:56.481Z,155
2016-09-29T13:31:56.511Z,185
2016-09-29T13:32:56.534Z,165
2016-09-29T13:33:56.556Z,155
2016-09-29T13:34:56.610Z,145
2016-09-29T13:35:56.922Z,125
2016-09-29T13:37:56.681Z,135
2016-09-29T13:39:56.728Z,130
2016-09-29T13:41:11.707Z,135
2016-09-29T13:42:11.714Z,130
2016-09-29T13:43:11.742Z,130
2016-09-29T13:44:26.699Z,125
2016-09-29T13:44:57.126Z,135
2016-09-29T13:45:56.920Z,150
2016-09-29T13:47:56.974Z,160
2016-09-29T13:48:56.995Z,140
2016-09-29T13:49:57.020Z,135
2016-09-29T13:50:57.056Z,125
2016-09-29T13:51:57.085Z,130
2016-09-29T13:53:12.034Z,140
2016-09-29T13:54:12.061Z,150
2016-09-29T13:54:57.173Z,140
2016-09-29T13:56:12.121Z,170
2016-09-29T13:57:12.153Z,160
2016-09-29T13:58:27.107Z,145
2016-09-29T13:59:12.219Z,130
2016-09-29T14:00:12.246Z,115
2016-09-29T14:00:57.348Z,115
2016-09-29T14:01:57.369Z,125
2016-09-29T14:02:57.406Z,115
2016-09-29T14:03:57.689Z,135
2016-09-29T14:05:12.435Z,110
2016-09-29T14:05:57.798Z,110
2016-09-29T14:06:57.515Z,120
2016-09-29T14:07:57.818Z,105
2016-09-29T14:08:57.576Z,140
2016-09-29T14:09:57.903Z,125
2016-09-29T14:10:57.641Z,105
2016-09-29T14:11:57.663Z,120
2016-09-29T14:14:12.949Z,110
2016-09-29T14:15:12.683Z,120
2016-09-29T14:15:57.791Z,125
2016-09-29T14:16:57.820Z,105
2016-09-29T14:17:57.843Z,110
2016-09-29T14:18:57.870Z,115
2016-09-29T14:19:57.894Z,155
2016-09-29T14:21:12.849Z,115
2016-09-29T14:21:57.971Z,110
2016-09-29T14:23:12.910Z,100
2016-09-29T14:24:12.940Z,110
2016-09-29T14:24:58.046Z,125
2016-09-29T14:25:58.075Z,105
2016-09-29T14:27:13.080Z,90
2016-09-29T14:27:58.127Z,85
2016-09-29T14:28:58.465Z,85
2016-09-29T14:29:58.190Z,135
2016-09-29T14:31:28.063Z,110
2016-09-29T14:32:13.171Z,90
2016-09-29T14:32:58.274Z,95
2016-09-29T14:33:58.307Z,90
2016-09-29T14:35:13.256Z,85
2016-09-29T14:35:58.357Z,90
2016-09-29T14:36:58.689Z,115
2016-09-29T14:37:58.424Z,130
2016-09-29T14:38:58.442Z,105
2016-09-29T14:39:58.475Z,90
2016-09-29T14:40:58.503Z,120
2016-09-29T14:41:58.540Z,110
2016-09-29T14:42:58.867Z,90
2016-09-29T14:43:58.833Z,95
2016-09-29T14:44:58.627Z,85
2016-09-29T14:45:58.651Z,80
2016-09-29T14:47:13.599Z,80
2016-09-29T14:47:58.712Z,80
2016-09-29T14:48:58.738Z,80
2016-09-29T14:49:58.764Z,80
2016-09-29T14:50:58.896Z,80
2016-09-29T14:51:58.821Z,80
2016-09-29T14:52:58.851Z,75
2016-09-29T14:53:58.870Z,75
2016-09-29T14:54:58.903Z,75
2016-09-29T14:55:58.936Z,90
2016-09-29T14:57:13.888Z,95